Latest Coastal Weather Observations for Horn Island

IDQ60701

Issued at 10:21 pm EST Thursday 25 May 2017 (issued every 10 minutes, with the page automatically refreshed every 10 minutes)

About coastal observations | Map of coastal stations | Coastal observations for QLD | Marine services | Other Formats
Station Details ID: 027058 Name: HORN ISLAND Lat: -10.58 Lon: 142.29 Height: 4.0 m
Data from the previous 72 hours. | See also: Recent months at Horn Island
Date/Time
EST
Temp
°C
Wind Pressure Rain since
9am
mm
Weather Cloud Vis
km
Sea
Height
m
Swell
Dir  Spd
kts
Gust
kts
hPa Trend Height
m
Period
s
Dir
25/10:00pm 25.9 SE 11 16 1012.3 - 0.2 - - 10 - - - -
25/09:30pm 25.9 SE 11 16 1012.2 - 0.2 - Partly cloudy 10 - - - -
25/09:00pm 25.8 SE 11 17 1012.0 - 0.2 - Mostly clear 10 - - - -
25/08:30pm 25.8 SE 10 16 1011.9 - 0.2 - - 10 - - - -
25/08:00pm 25.6 SE 11 16 1011.8 - 0.2 - Partly cloudy 9 - - - -
25/07:30pm 26.2 SE 12 16 1011.5 - 0.2 - Partly cloudy 10 - - - -
25/07:00pm 26.3 SE 12 16 1011.1 - 0.2 - Partly cloudy 10 - - - -
25/06:30pm 26.6 SE 12 16 1010.8 - 0.2 - Partly cloudy 10 - - - -
25/06:00pm 26.8 SE 13 18 1010.6 - 0.2 - - 10 - - - -
25/05:30pm 27.4 SE 14 20 1010.3 - 0.2 - Partly cloudy 10 - - - -
25/05:00pm 27.8 ESE 16 22 1010.0 - 0.2 - - 10 - - - -
25/04:30pm 28.0 ESE 18 23 1009.8 - 0.2 - - 10 - - - -
25/04:00pm 28.5 ESE 16 22 1009.7 - 0.2 - - 10 - - - -
25/03:30pm 28.7 ESE 17 24 1009.6 - 0.2 - - 10 - - - -
25/03:00pm 28.7 ESE 18 25 1009.7 - 0.2 - - 10 - - - -
25/02:30pm 29.2 ESE 19 26 1009.7 - 0.2 - - 10 - - - -
25/02:00pm 29.3 ESE 18 25 1010.1 - 0.2 - - 10 - - - -
25/01:30pm 28.8 ESE 21 29 1010.5 - 0.2 - - 10 - - - -
25/01:00pm 29.2 ESE 19 29 1011.0 - 0.0 - - 10 - - - -
25/12:53pm 28.9 ESE 19 29 1011.1 - 0.0 - - 10 - - - -
25/12:30pm 29.7 ESE 21 28 1011.4 - 0.0 - - 10 - - - -
25/12:00pm 29.1 ESE 19 25 1011.9 - 0.0 - Mostly cloudy 10 - - - -
25/11:30am 29.5 ESE 19 27 1012.4 - 0.0 - Partly cloudy 10 - - - -
25/11:25am 28.7 ESE 17 27 1012.4 - 0.0 - Partly cloudy 10 - - - -
25/11:00am 28.6 ESE 19 27 1012.6 - 0.0 - Partly cloudy 10 - - - -
25/10:30am 28.6 ESE 19 27 1012.9 - 0.0 - Partly cloudy 10 - - - -
25/10:00am 28.3 ESE 18 25 1013.0 - 0.0 - - 10 - - - -
25/09:30am 28.0 ESE 18 25 1013.1 - 0.0 - Partly cloudy 10 - - - -
25/09:00am 27.2 ESE 17 26 1012.9 - 0.0 - Cloudy 10 - - - -
25/08:50am 27.2 ESE 15 25 1012.9 - 0.0 - Partly cloudy 10 - - - -
25/08:30am 27.1 ESE 15 23 1012.7 - 0.0 - Partly cloudy 10 - - - -
25/08:00am 27.0 ESE 15 22 1012.5 - 0.0 - - 10 - - - -
25/07:30am 26.6 ESE 17 25 1012.0 - 0.0 - - 10 - - - -
25/07:21am 26.6 ESE 17 27 1011.9 - 0.0 - - 10 - - - -
25/07:00am 26.4 ESE 16 22 1011.7 - 0.0 - - 10 - - - -
25/06:49am 26.5 ESE 16 26 1011.8 - 0.0 - - 10 - - - -
25/06:30am 26.5 ESE 16 23 1011.7 - 0.0 - Partly cloudy 10 - - - -
25/06:09am 26.4 ESE 15 25 1011.5 - 0.0 - Partly cloudy 10 - - - -
25/06:00am 26.3 ESE 16 24 1011.5 - 0.0 - Mostly clear 10 - - - -
25/05:33am 26.3 ESE 15 25 1011.0 - 0.0 - Partly cloudy 10 - - - -
25/05:30am 26.3 ESE 14 21 1011.0 - 0.0 - Partly cloudy 10 - - - -
25/05:00am 26.4 ESE 15 23 1010.9 - 0.0 - Partly cloudy 10 - - - -
25/04:30am 26.2 ESE 14 23 1010.6 - 0.0 - Partly cloudy 10 - - - -
25/04:00am 26.3 ESE 13 18 1010.5 - 0.0 - Partly cloudy 10 - - - -
25/03:30am 26.4 ESE 16 22 1010.6 - 0.0 - Partly cloudy 10 - - - -
25/03:19am 26.5 ESE 15 25 1010.7 - 0.0 - Partly cloudy 10 - - - -
25/03:00am 26.4 SE 12 18 1010.8 - 0.0 - Cloudy 10 - - - -
25/02:30am 26.5 SE 14 21 1011.0 - 0.0 - Partly cloudy 10 - - - -
25/02:00am 26.6 SE 13 18 1011.2 - 0.0 - Partly cloudy 10 - - - -
25/01:30am 26.4 SE 11 16 1011.6 - 0.0 - Partly cloudy 10 - - - -
25/01:00am 26.6 SE 14 20 1011.6 - 0.0 - Partly cloudy 10 - - - -
25/12:30am 26.7 SE 14 23 1011.8 - 0.0 - Partly cloudy 10 - - - -
25/12:00am 26.6 SE 15 21 1011.9 - 0.0 - Cloudy 10 - - - -
 
Date/Time
EST
Temp
°C
Wind Pressure Rain since
9am
mm
Weather Cloud Vis
km
Sea
Height
m
Swell
Dir  Spd
kts
Gust
kts
hPa Trend Height
m
Period
s
Dir
24/11:30pm 26.6 SE 13 19 1012.2 - 0.0 - Partly cloudy 10 - - - -
24/11:00pm 26.3 SE 13 18 1012.2 - 0.0 - Partly cloudy 10 - - - -
24/10:30pm 26.3 SE 16 25 1012.3 - 0.0 - Partly cloudy 8 - - - -
24/10:19pm 27.0 SE 15 25 1012.2 - 0.0 - Partly cloudy 10 - - - -
24/10:00pm 27.2 SE 15 21 1012.1 - 0.0 - Partly cloudy 10 - - - -
24/09:30pm 27.1 SE 14 20 1012.0 - 0.0 - Partly cloudy 10 - - - -
24/09:00pm 27.2 SE 14 20 1011.9 - 0.0 - Cloudy 10 - - - -
24/08:32pm 27.2 SE 16 27 1012.0 - 0.0 - Partly cloudy 10 - - - -
24/08:30pm 27.2 SE 16 25 1012.0 - 0.0 - Partly cloudy 10 - - - -
24/08:00pm 27.2 SE 15 23 1011.6 - 0.0 - Partly cloudy 10 - - - -
24/07:30pm 27.2 ESE 15 22 1011.4 - 0.0 - Partly cloudy 10 - - - -
24/07:00pm 27.3 SE 15 21 1011.0 - 0.0 - Partly cloudy 10 - - - -
24/06:30pm 27.4 SE 18 28 1010.5 - 0.0 - Partly cloudy 10 - - - -
24/06:00pm 27.6 SE 17 25 1009.9 - 0.0 - Partly cloudy 10 - - - -
24/05:30pm 27.9 SE 17 24 1009.7 - 0.0 - Partly cloudy 10 - - - -
24/05:00pm 28.1 SE 17 25 1009.4 - 0.0 - Partly cloudy 10 - - - -
24/04:30pm 28.8 SE 18 25 1009.3 - 0.0 - Partly cloudy 10 - - - -
24/04:00pm 29.3 ESE 18 24 1009.2 - 0.0 - Partly cloudy 10 - - - -
24/03:30pm 29.0 SE 18 26 1009.3 - 0.0 - Partly cloudy 10 - - - -
24/03:02pm 29.2 ESE 18 28 1009.3 - 0.0 - Partly cloudy 10 - - - -
24/03:00pm 28.9 ESE 19 28 1009.3 - 0.0 - Mostly cloudy 10 - - - -
24/02:40pm 29.6 ESE 20 31 1009.6 - 0.0 - Partly cloudy 10 - - - -
24/02:30pm 30.2 SE 20 28 1009.7 - 0.0 - Partly cloudy 10 - - - -
24/02:00pm 29.5 ESE 18 28 1010.1 - 0.0 - - 10 - - - -
24/01:55pm 29.7 ESE 18 28 1010.3 - 0.0 - - 10 - - - -
24/01:30pm 30.1 ESE 20 27 1010.9 - 0.0 - - 10 - - - -
24/01:00pm 29.6 ESE 18 26 1011.3 - 0.0 - - 10 - - - -
24/12:30pm 29.0 SE 18 27 1011.6 - 0.0 - - 10 - - - -
24/12:27pm 29.3 SE 17 27 1011.5 - 0.0 - Partly cloudy 10 - - - -
24/12:00pm 28.3 ESE 19 25 1011.9 - 0.0 - Cloudy 10 - - - -
24/11:58am 28.5 ESE 18 25 1011.9 - 0.0 - Partly cloudy 10 - - - -
24/11:44am 27.0 ESE 19 28 1012.1 - 0.0 - Partly cloudy 5 - - - -
24/11:40am 27.3 ESE 18 28 1012.1 - 0.0 - Partly cloudy 8 - - - -
24/11:30am 29.3 ESE 17 25 1012.0 - 0.0 - Partly cloudy 10 - - - -
24/11:00am 28.7 ESE 17 24 1012.4 - 0.0 - Partly cloudy 10 - - - -
24/10:33am 27.8 SE 15 25 1012.6 - 0.0 - Partly cloudy 10 - - - -
24/10:31am 27.5 SE 16 25 1012.6 - 0.0 - Partly cloudy 10 - - - -
24/10:30am 27.6 SE 15 20 1012.5 - 0.0 - Partly cloudy 10 - - - -
24/10:21am 26.8 ESE 15 25 1012.7 - 0.0 - Partly cloudy 5 - - - -
24/10:07am 27.0 ESE 15 21 1012.7 - 0.0 - Partly cloudy 5 - - - -
24/10:00am 28.1 ESE 15 23 1012.6 - 0.0 - Partly cloudy 10 - - - -
24/09:30am 28.7 ESE 17 25 1012.7 - 0.0 - Partly cloudy 10 - - - -
24/09:22am 28.6 ESE 16 26 1012.7 - 0.0 - Partly cloudy 10 - - - -
24/09:00am 28.7 ESE 16 22 1012.5 - 0.0 - Cloudy 10 - - - -
24/08:30am 27.9 SE 15 22 1012.1 - 0.0 - Partly cloudy 10 - - - -
24/08:00am 26.8 SSE 10 15 1011.8 - 0.0 - Partly cloudy 10 - - - -
24/07:30am 26.2 SSE 8 11 1011.6 - 0.0 - Partly cloudy 10 - - - -
24/07:00am 26.0 SSE 8 13 1011.3 - 0.0 - Partly cloudy 10 - - - -
24/06:30am 25.6 SSE 8 11 1011.0 - 0.0 - Partly cloudy 10 - - - -
24/06:00am 25.7 SSE 9 13 1010.7 - 0.0 - Cloudy 10 - - - -
24/05:30am 25.7 SSE 8 11 1010.6 - 0.0 - Partly cloudy 10 - - - -
24/05:00am 25.8 S 9 12 1010.4 - 0.0 - Partly cloudy 10 - - - -
24/04:30am 25.7 S 9 12 1010.2 - 0.0 - Partly cloudy 10 - - - -
24/04:00am 25.8 SSE 9 12 1010.1 - 0.0 - Partly cloudy 10 - - - -
24/03:30am 25.8 S 9 13 1010.2 - 0.0 - Partly cloudy 10 - - - -
24/03:18am 25.8 S 9 13 1010.2 - 0.0 - Partly cloudy 10 - - - -
24/03:00am 25.8 S 8 14 1010.4 - 0.0 - Cloudy 10 - - - -
24/02:47am 25.9 SSE 8 13 1010.6 - 0.0 - Partly cloudy 10 - - - -
24/02:30am 25.9 SSE 8 12 1010.7 - 0.0 - Partly cloudy 10 - - - -
24/02:00am 25.8 S 10 14 1010.5 - 0.0 - Partly cloudy 10 - - - -
24/01:30am 25.9 SSE 10 16 1010.9 - 0.0 - Partly cloudy 10 - - - -
24/01:00am 26.0 SSE 9 13 1011.1 - 0.0 - Partly cloudy 10 - - - -
24/12:30am 25.9 SSE 12 15 1011.5 - 0.0 - Cloudy 10 - - - -
24/12:00am 26.1 SSE 12 21 1011.8 - 0.0 - Cloudy 10 - - - -
 
Date/Time
EST
Temp
°C
Wind Pressure Rain since
9am
mm
Weather Cloud Vis
km
Sea
Height
m
Swell
Dir  Spd
kts
Gust
kts
hPa Trend Height
m
Period
s
Dir
23/11:30pm 26.1 SSE 13 19 1012.1 - 0.0 - Cloudy 10 - - - -
23/11:00pm 26.0 SSE 11 16 1012.3 - 0.0 - Partly cloudy 10 - - - -
23/10:30pm 26.3 SSE 11 15 1012.5 - 0.0 - Partly cloudy 10 - - - -
23/10:00pm 26.4 SSE 10 15 1012.5 - 0.0 - Cloudy 10 - - - -
23/09:30pm 26.5 SSE 8 13 1012.6 - 0.0 - Partly cloudy 10 - - - -
23/09:00pm 26.5 SSE 9 15 1012.3 - 0.0 - Cloudy 10 - - - -
23/08:30pm 26.4 SSE 10 16 1011.7 - 0.0 - - 10 - - - -
23/08:00pm 26.4 SSE 9 13 1011.2 - 0.0 - - 10 - - - -
23/07:30pm 26.4 SE 11 14 1010.8 - 0.0 - Partly cloudy 10 - - - -
23/07:00pm 26.3 SSE 11 17 1010.4 - 0.0 - Cloudy 10 - - - -
23/06:30pm 26.1 SSE 14 19 1010.1 - 0.0 - Partly cloudy 10 - - - -
23/06:00pm 27.2 SSE 10 17 1009.9 - 0.0 - Partly cloudy 10 - - - -
23/05:30pm 27.6 SSE 11 16 1009.8 - 0.0 - Cloudy 10 - - - -
23/05:00pm 28.4 SE 15 21 1009.6 - 0.0 - Partly cloudy 10 - - - -
23/04:30pm 28.9 ESE 14 20 1009.6 - 0.0 - Partly cloudy 10 - - - -
23/04:00pm 28.7 ESE 13 21 1009.7 - 0.0 - Partly cloudy 10 - - - -
23/03:30pm 29.1 ESE 14 19 1009.6 - 0.0 - Cloudy 10 - - - -
23/03:00pm 30.1 E 13 17 1009.6 - 0.0 - Mostly clear 10 - - - -
23/02:30pm 30.2 ESE 13 19 1009.6 - 0.0 - - 10 - - - -
23/02:00pm 29.6 ESE 14 19 1009.9 - 0.0 - - 10 - - - -
23/01:30pm 29.7 ESE 14 20 1010.2 - 0.0 - - 10 - - - -
23/01:00pm 29.9 ESE 14 19 1010.5 - 0.0 - - 10 - - - -
23/12:30pm 29.8 ESE 16 23 1011.1 - 0.0 - Partly cloudy 10 - - - -
23/12:00pm 30.0 ESE 17 22 1011.5 - 0.0 - Mostly clear 10 - - - -
23/11:30am 29.6 ESE 16 23 1011.8 - 0.0 - Partly cloudy 10 - - - -
23/11:14am 29.2 SE 16 26 1012.0 - 0.0 - Partly cloudy 10 - - - -
23/11:03am 29.2 SE 17 23 1012.1 - 0.0 - Partly cloudy 10 - - - -
23/11:00am 28.9 SE 17 23 1012.3 - 0.0 - Partly cloudy 10 - - - -
23/10:43am 29.1 ESE 17 24 1012.4 - 0.0 - Partly cloudy 1 - - - -
23/10:00am 28.7 SE 16 23 1012.6 - 0.0 - Partly cloudy 10 - - - -
23/09:30am 28.4 SE 16 22 1012.8 - 0.0 - Partly cloudy 10 - - - -
23/09:00am 27.6 SE 14 20 1013.0 - 0.2 - Mostly cloudy 10 - - - -
23/08:30am 27.5 ESE 13 19 1012.7 - 0.2 - Partly cloudy 10 - - - -
23/08:00am 27.1 ESE 14 19 1012.7 - 0.2 - Partly cloudy 10 - - - -
23/07:30am 26.8 SE 12 18 1012.3 - 0.2 - Cloudy 10 - - - -
23/07:00am 26.5 SE 13 18 1011.8 - 0.2 - Partly cloudy 10 - - - -
23/06:30am 26.4 SE 14 23 1011.4 - 0.2 - Partly cloudy 10 - - - -
23/06:00am 26.3 ESE 15 21 1011.2 - 0.2 - Mostly cloudy 10 - - - -
23/05:30am 26.5 SE 14 21 1010.7 - 0.2 - Partly cloudy 10 - - - -
23/05:00am 26.4 SE 13 19 1010.5 - 0.2 - Partly cloudy 10 - - - -
23/04:30am 26.6 SE 12 17 1010.6 - 0.2 - Cloudy 10 - - - -
23/04:00am 26.5 SE 12 16 1010.5 - 0.2 - Partly cloudy 10 - - - -
23/03:30am 26.5 SE 12 17 1010.6 - 0.2 - Cloudy 10 - - - -
23/03:00am 26.5 SE 13 19 1010.7 - 0.2 - Mostly cloudy 10 - - - -
23/02:30am 26.5 SE 13 18 1010.8 - 0.2 - Partly cloudy 10 - - - -
23/02:00am 26.7 ESE 15 20 1011.2 - 0.2 - Partly cloudy 10 - - - -
23/01:30am 26.5 ESE 13 18 1011.5 - 0.2 - Partly cloudy 10 - - - -
23/01:00am 26.8 SE 13 21 1011.9 - 0.2 - Partly cloudy 10 - - - -
23/12:30am 26.8 ESE 12 19 1012.2 - 0.2 - Partly cloudy 10 - - - -
23/12:00am 26.6 SE 12 18 1012.3 - 0.2 - Mostly cloudy 10 - - - -
 
Date/Time
EST
Temp
°C
Wind Pressure Rain since
9am
mm
Weather Cloud Vis
km
Sea
Height
m
Swell
Dir  Spd
kts
Gust
kts
hPa Trend Height
m
Period
s
Dir
22/11:30pm 26.7 ESE 15 22 1012.6 - 0.2 - Partly cloudy 10 - - - -
22/11:00pm 26.8 ESE 16 22 1012.7 - 0.2 - Partly cloudy 10 - - - -
22/10:30pm 26.9 ESE 17 22 1012.7 - 0.2 - Partly cloudy 10 - - - -

Other Formats:

Comma delimited format used in spreadsheet applications
http://www.bom.gov.au/fwo/IDQ60701/IDQ60701.94174.axf

JavaScript Object Notation format (JSON) in row-major order
http://www.bom.gov.au/fwo/IDQ60701/IDQ60701.94174.json